Time;durP1;ratioP1;P1;durP2;ratioP2;P2;SDS_P1;SDS_P2;PMS_P1;PMS_P2;Temp;Humidity;BMP_temperature;BMP_pressure;BME280_temperature;BME280_humidity;BME280_pressure;Samples;Min_cycle;Max_cycle;Signal;HPM_P1;HPM_P2
2022/04/04 00:02:18;;;;;;;;;;;;;;;1.57;68.92;100414.81;5067539;28;20015;-82
2022/04/04 00:04:44;;;;;;;;;;;;;;;1.55;68.14;100408.91;5068088;28;20007;-83
2022/04/04 00:07:09;;;;;;;;;;;;;;;1.58;68.71;100413.63;5054695;28;20027;-83
2022/04/04 00:09:35;;;;;;;;;;;;;;;1.61;68.83;100418.38;5054725;28;19921;-83
2022/04/04 00:12:01;;;;;;;;;;;;;;;1.62;69.47;100419.19;5070392;28;20388;-83
2022/04/04 00:14:26;;;;;;;;;;;;;;;1.61;69.72;100421.13;5068103;28;19921;-83
2022/04/04 00:16:52;;;;;;;;;;;;;;;1.59;69.07;100422.63;5070192;28;19920;-82
2022/04/04 00:19:17;;;;;;;;;;;;;;;1.59;69.14;100417.16;5064851;28;19924;-82
2022/04/04 00:21:44;;;;;;;;;;;;;;;1.56;69.12;100418.69;5070197;28;19921;-83
2022/04/04 00:24:09;;;;;;;;;;;;;;;1.57;70.34;100416.75;5069958;28;19950;-82
2022/04/04 00:26:35;;;;;;;;;;;;;;;1.57;70.65;100420.28;5051243;28;20445;-82
2022/04/04 00:29:01;;;;;;;;;;;;;;;1.59;70.00;100422.63;5069489;28;19928;-82
2022/04/04 00:31:26;;;;;;;;;;;;;;;1.60;69.79;100421.47;5068024;28;19925;-83
2022/04/04 00:33:52;;;;;;;;;;;;;;;1.62;69.65;100422.69;5071331;28;19921;-83
2022/04/04 00:36:18;;;;;;;;;;;;;;;1.57;70.77;100419.47;5071696;28;19985;-85
2022/04/04 00:38:44;;;;;;;;;;;;;;;1.54;68.87;100418.25;5071805;28;20462;-86
2022/04/04 00:41:10;;;;;;;;;;;;;;;1.52;69.07;100412.38;5068104;28;19934;-85
2022/04/04 00:43:36;;;;;;;;;;;;;;;1.54;69.12;100417.50;5071220;28;19960;-85
2022/04/04 00:46:01;;;;;;;;;;;;;;;1.57;69.79;100414.81;5070702;28;19956;-85
2022/04/04 00:48:27;;;;;;;;;;;;;;;1.59;70.48;100412.47;5071848;28;19935;-85
2022/04/04 00:50:52;;;;;;;;;;;;;;;1.57;69.74;100419.47;5069554;28;19924;-85
2022/04/04 00:53:17;;;;;;;;;;;;;;;1.56;70.81;100412.44;5069273;28;20408;-85
2022/04/04 00:55:44;;;;;;;;;;;;;;;1.56;69.06;100418.69;5062422;28;19931;-85
2022/04/04 00:58:09;;;;;;;;;;;;;;;1.55;69.58;100417.09;5069243;28;20003;-85
2022/04/04 01:00:35;;;;;;;;;;;;;;;1.54;69.52;100420.22;5068962;28;19920;-85
2022/04/04 01:03:01;;;;;;;;;;;;;;;1.54;70.70;100426.44;5049732;28;19920;-85
2022/04/04 01:05:26;;;;;;;;;;;;;;;1.57;70.49;100405.81;5036534;28;20272;-84
2022/04/04 01:07:52;;;;;;;;;;;;;;;1.57;71.76;100414.00;5041238;28;19967;-85
2022/04/04 01:10:17;;;;;;;;;;;;;;;1.56;71.37;100413.22;5046838;28;21637;-85
2022/04/04 01:12:52;;;;;;;;;;;;;;;1.57;70.67;100411.28;5047524;28;20409;-82
2022/04/04 01:15:18;;;;;;;;;;;;;;;1.55;70.30;100417.09;5044416;28;20476;-83
2022/04/04 01:17:45;;;;;;;;;;;;;;;1.51;71.50;100419.00;5049705;28;19920;-82
2022/04/04 01:20:11;;;;;;;;;;;;;;;1.56;72.01;100396.03;5051195;28;19925;-82
2022/04/04 01:22:36;;;;;;;;;;;;;;;1.58;72.03;100416.38;5045461;28;20275;-82
2022/04/04 01:25:05;;;;;;;;;;;;;;;1.59;72.90;100408.94;5048748;28;20007;-82
2022/04/04 01:27:30;;;;;;;;;;;;;;;1.60;72.94;100405.88;5050282;28;19924;-83
2022/04/04 01:29:56;;;;;;;;;;;;;;;1.61;72.78;100404.72;5049811;28;19925;-83
2022/04/04 01:32:21;;;;;;;;;;;;;;;1.59;71.64;100406.22;5049570;28;19936;-82
2022/04/04 01:34:47;;;;;;;;;;;;;;;1.52;71.66;100404.19;5048792;28;19932;-82
2022/04/04 01:37:12;;;;;;;;;;;;;;;1.56;72.06;100415.94;5049335;28;19967;-82
2022/04/04 01:39:37;;;;;;;;;;;;;;;1.54;72.65;100418.25;5049590;28;20293;-82
2022/04/04 01:42:03;;;;;;;;;;;;;;;1.53;72.99;100419.44;5049586;28;19921;-83
2022/04/04 01:44:28;;;;;;;;;;;;;;;1.55;73.03;100428.03;5049790;28;20301;-83
2022/04/04 01:46:54;;;;;;;;;;;;;;;1.56;74.22;100423.38;5049110;28;20019;-83
2022/04/04 01:49:19;;;;;;;;;;;;;;;1.57;74.66;100416.75;5049436;28;19928;-83
2022/04/04 01:51:44;;;;;;;;;;;;;;;1.58;73.94;100396.47;5047319;28;19967;-83
2022/04/04 01:54:10;;;;;;;;;;;;;;;1.55;73.20;100422.56;5064653;28;19921;-82
2022/04/04 01:56:35;;;;;;;;;;;;;;;1.59;73.26;100417.16;5049621;28;19928;-82
2022/04/04 01:59:01;;;;;;;;;;;;;;;1.60;73.47;100414.06;5049915;28;19928;-83
2022/04/04 02:01:27;;;;;;;;;;;;;;;1.60;73.83;100425.00;5049010;28;19921;-82
2022/04/04 02:03:54;;;;;;;;;;;;;;;1.59;74.03;100422.63;5057362;28;20014;-82
2022/04/04 02:06:19;;;;;;;;;;;;;;;1.54;74.22;100420.22;5068484;28;20023;-82
2022/04/04 02:08:45;;;;;;;;;;;;;;;1.52;74.68;100408.84;5065638;28;20458;-83
2022/04/04 02:11:11;;;;;;;;;;;;;;;1.53;75.47;100424.91;5068665;28;19921;-82
2022/04/04 02:13:37;;;;;;;;;;;;;;;1.56;74.86;100428.84;5068319;28;20028;-82
2022/04/04 02:16:03;;;;;;;;;;;;;;;1.55;75.99;100428.03;5051309;28;19920;-82
2022/04/04 02:18:29;;;;;;;;;;;;;;;1.55;76.72;100417.09;5068449;28;20270;-82
2022/04/04 02:20:54;;;;;;;;;;;;;;;1.58;77.29;100421.84;5049011;28;19951;-82
2022/04/04 02:23:20;;;;;;;;;;;;;;;1.58;78.42;100421.06;5064840;28;19924;-82
2022/04/04 02:25:46;;;;;;;;;;;;;;;1.42;78.03;100391.13;5046780;28;19927;-83
2022/04/04 02:28:13;;;;;;;;;;;;;;;1.56;80.44;100412.44;5069673;28;19968;-83
2022/04/04 02:30:39;;;;;;;;;;;;;;;1.52;82.00;100420.56;5066790;28;19917;-85
2022/04/04 02:33:05;;;;;;;;;;;;;;;1.42;84.46;100418.44;5065575;28;19925;-85
2022/04/04 02:35:30;;;;;;;;;;;;;;;1.33;84.90;100420.66;5067535;28;19920;-85
2022/04/04 02:37:55;;;;;;;;;;;;;;;1.28;85.90;100418.22;5058852;28;19927;-86
2022/04/04 02:40:21;;;;;;;;;;;;;;;1.25;85.60;100425.22;5057107;28;19920;-86
2022/04/04 02:42:47;;;;;;;;;;;;;;;1.27;85.79;100422.09;5048802;28;19921;-86
2022/04/04 02:45:12;;;;;;;;;;;;;;;1.32;85.94;100428.06;5058389;28;19921;-83
2022/04/04 02:47:38;;;;;;;;;;;;;;;1.33;82.31;100412.47;5064388;28;19920;-85
2022/04/04 02:50:04;;;;;;;;;;;;;;;1.36;83.52;100420.72;5066528;28;19925;-85
2022/04/04 02:52:29;;;;;;;;;;;;;;;1.37;83.97;100399.66;5065136;28;19928;-85
2022/04/04 02:54:55;;;;;;;;;;;;;;;1.43;81.47;100420.03;5068736;28;19920;-85
2022/04/04 02:57:21;;;;;;;;;;;;;;;1.40;81.82;100420.78;5065951;28;19927;-85
2022/04/04 02:59:46;;;;;;;;;;;;;;;1.42;82.15;100414.94;5068174;28;19938;-85
2022/04/04 03:02:12;;;;;;;;;;;;;;;1.40;82.18;100420.78;5047932;28;19920;-85
2022/04/04 03:04:40;;;;;;;;;;;;;;;1.45;81.66;100422.41;5049604;28;19929;-86
2022/04/04 03:07:06;;;;;;;;;;;;;;;1.47;81.34;100414.63;5040736;28;19921;-83
2022/04/04 03:09:32;;;;;;;;;;;;;;;1.40;79.51;100398.91;5049322;28;19974;-83
2022/04/04 03:11:57;;;;;;;;;;;;;;;1.39;79.99;100416.44;5046096;28;19929;-82
2022/04/04 03:14:23;;;;;;;;;;;;;;;1.40;79.41;100404.38;5049631;28;19924;-82
2022/04/04 03:16:48;;;;;;;;;;;;;;;1.43;79.27;100414.56;5044698;28;19928;-82
2022/04/04 03:19:13;;;;;;;;;;;;;;;1.45;78.51;100404.06;5043238;28;20389;-82
2022/04/04 03:21:40;;;;;;;;;;;;;;;1.45;78.52;100406.81;5045507;28;19990;-82
2022/04/04 03:24:06;;;;;;;;;;;;;;;1.46;78.71;100413.81;5048722;28;19921;-83
2022/04/04 03:26:32;;;;;;;;;;;;;;;1.46;78.52;100411.09;5052388;28;19929;-86
2022/04/04 03:28:57;;;;;;;;;;;;;;;1.45;78.52;100406.00;5051633;28;19964;-85
2022/04/04 03:31:23;;;;;;;;;;;;;;;1.42;79.04;100407.50;5050563;28;20305;-85
2022/04/04 03:33:48;;;;;;;;;;;;;;;1.43;78.83;100411.84;5051567;28;20309;-85
2022/04/04 03:36:14;;;;;;;;;;;;;;;1.45;79.69;100411.47;5052495;28;19925;-85
2022/04/04 03:38:39;;;;;;;;;;;;;;;1.45;79.70;100406.81;5043295;28;19928;-85
2022/04/04 03:41:05;;;;;;;;;;;;;;;1.48;81.00;100413.47;5047076;28;19928;-85
2022/04/04 03:43:30;;;;;;;;;;;;;;;1.51;81.26;100413.53;5063505;28;20439;-85
2022/04/04 03:45:56;;;;;;;;;;;;;;;1.57;79.96;100414.81;5064336;28;19917;-86
2022/04/04 03:48:21;;;;;;;;;;;;;;;1.52;79.99;100409.66;5051870;28;19927;-85
2022/04/04 03:50:47;;;;;;;;;;;;;;;1.55;80.37;100425.31;5052532;28;20015;-85
2022/04/04 03:53:13;;;;;;;;;;;;;;;1.54;80.25;100423.72;5046107;28;19920;-85
2022/04/04 03:55:39;;;;;;;;;;;;;;;1.53;80.76;100413.97;5049828;28;19956;-85
2022/04/04 03:58:10;;;;;;;;;;;;;;;1.55;80.93;100419.84;5044488;28;20436;-85
2022/04/04 04:00:39;;;;;;;;;;;;;;;1.45;81.54;100420.47;5050923;28;19965;-85
2022/04/04 04:03:05;;;;;;;;;;;;;;;1.36;82.28;100419.94;5053645;28;20043;-83
2022/04/04 04:05:30;;;;;;;;;;;;;;;1.39;83.30;100408.25;5062369;28;19921;-83
2022/04/04 04:07:56;;;;;;;;;;;;;;;1.40;87.25;100418.03;5071666;28;20390;-82
2022/04/04 04:10:21;;;;;;;;;;;;;;;1.43;84.94;100420.03;5070014;28;19920;-82
2022/04/04 04:12:47;;;;;;;;;;;;;;;1.40;84.66;100420.78;5068026;28;19921;-81
2022/04/04 04:15:16;;;;;;;;;;;;;;;1.37;84.91;100432.44;5052222;28;20368;-81
2022/04/04 04:17:42;;;;;;;;;;;;;;;1.37;85.65;100432.44;5068211;28;19924;-81
2022/04/04 04:20:19;;;;;;;;;;;;;;;1.39;85.98;100419.19;5070520;28;19932;-81
2022/04/04 04:22:49;;;;;;;;;;;;;;;1.38;85.09;100425.81;5066671;28;19927;-81
2022/04/04 04:25:15;;;;;;;;;;;;;;;1.35;85.61;100434.75;5071430;28;20373;-84
2022/04/04 04:27:41;;;;;;;;;;;;;;;1.31;86.42;100428.44;5071830;28;19943;-84
2022/04/04 04:30:07;;;;;;;;;;;;;;;1.32;86.47;100430.81;5070909;28;19916;-84
2022/04/04 04:32:32;;;;;;;;;;;;;;;1.34;85.89;100433.16;5069417;28;19935;-84
2022/04/04 04:34:58;;;;;;;;;;;;;;;1.35;84.99;100434.75;5053711;28;19974;-84
2022/04/04 04:37:23;;;;;;;;;;;;;;;1.35;86.40;100432.81;5057405;28;19963;-85
2022/04/04 04:39:48;;;;;;;;;;;;;;;1.35;84.82;100442.94;5069117;28;19932;-81
2022/04/04 04:42:14;;;;;;;;;;;;;;;1.36;84.80;100436.31;5071314;28;19921;-84
2022/04/04 04:44:39;;;;;;;;;;;;;;;1.38;85.21;100434.78;5053876;28;19921;-84
2022/04/04 04:47:05;;;;;;;;;;;;;;;1.39;84.57;100443.78;5062759;28;19924;-85
2022/04/04 04:49:31;;;;;;;;;;;;;;;1.42;83.66;100437.59;5055055;28;19920;-84
2022/04/04 04:51:57;;;;;;;;;;;;;;;1.38;83.95;100442.19;5065517;28;20020;-88
2022/04/04 04:54:22;;;;;;;;;;;;;;;1.37;83.63;100446.13;5051289;28;20003;-89
2022/04/04 04:56:47;;;;;;;;;;;;;;;1.42;84.70;100443.06;5068426;28;20010;-88
2022/04/04 04:59:13;;;;;;;;;;;;;;;1.46;86.34;100445.88;5066489;28;19928;-87
2022/04/04 05:01:39;;;;;;;;;;;;;;;1.53;86.33;100448.72;5060688;28;20074;-85
2022/04/04 05:04:04;;;;;;;;;;;;;;;1.53;87.09;100446.78;5067155;28;20393;-87
2022/04/04 05:06:30;;;;;;;;;;;;;;;1.50;87.66;100446.72;5040322;28;19921;-86
2022/04/04 05:08:58;;;;;;;;;;;;;;;1.61;87.02;100442.19;5044900;28;19920;-87
2022/04/04 05:11:23;;;;;;;;;;;;;;;1.61;86.08;100443.00;5052797;28;19943;-87
2022/04/04 05:13:48;;;;;;;;;;;;;;;1.66;86.05;100445.41;5066928;28;19920;-86
2022/04/04 05:16:14;;;;;;;;;;;;;;;1.71;84.20;100450.56;5070257;28;20466;-89
2022/04/04 05:18:42;;;;;;;;;;;;;;;1.75;82.63;100448.66;5064643;28;20463;-86
2022/04/04 05:21:09;;;;;;;;;;;;;;;1.79;82.01;100451.44;5068305;28;20393;-86
2022/04/04 05:23:35;;;;;;;;;;;;;;;1.73;78.68;100456.47;5066636;28;20316;-87
2022/04/04 05:26:00;;;;;;;;;;;;;;;1.74;81.67;100452.56;5048554;28;19974;-86
2022/04/04 05:28:26;;;;;;;;;;;;;;;1.76;80.76;100458.47;5062463;28;19974;-86
2022/04/04 05:30:51;;;;;;;;;;;;;;;1.79;80.19;100454.97;5063368;28;19921;-86
2022/04/04 05:33:16;;;;;;;;;;;;;;;1.85;77.78;100458.19;5066566;28;19932;-87
2022/04/04 05:35:42;;;;;;;;;;;;;;;1.86;77.45;100455.09;5063434;28;19928;-85
2022/04/04 05:38:07;;;;;;;;;;;;;;;1.93;76.95;100451.69;5060423;28;20400;-87
2022/04/04 05:40:34;;;;;;;;;;;;;;;2.03;77.81;100458.44;5066083;28;19929;-84
2022/04/04 05:43:00;;;;;;;;;;;;;;;2.15;76.76;100448.06;5067371;28;19920;-83
2022/04/04 05:45:26;;;;;;;;;;;;;;;2.22;74.40;100455.59;5069893;28;19920;-87
2022/04/04 05:47:52;;;;;;;;;;;;;;;2.24;73.59;100453.28;5054616;28;19985;-88
2022/04/04 05:50:18;;;;;;;;;;;;;;;2.31;72.55;100453.38;5069756;28;19950;-90
2022/04/04 05:52:44;;;;;;;;;;;;;;;2.24;69.81;100467.75;5070465;28;19920;-89
2022/04/04 05:55:09;;;;;;;;;;;;;;;2.25;70.40;100472.06;5062471;28;19939;-89
2022/04/04 05:57:36;;;;;;;;;;;;;;;2.28;70.57;100470.53;5063716;28;19977;-84
2022/04/04 06:00:03;;;;;;;;;;;;;;;2.27;70.10;100464.28;5052927;28;20377;-89
2022/04/04 06:02:35;;;;;;;;;;;;;;;2.28;69.63;100476.81;5071049;28;19971;-89
2022/04/04 06:05:01;;;;;;;;;;;;;;;2.32;68.99;100474.09;5049722;28;19964;-89
2022/04/04 06:07:26;;;;;;;;;;;;;;;2.31;69.71;100475.25;5063099;28;19927;-89
2022/04/04 06:09:51;;;;;;;;;;;;;;;2.37;70.03;100468.31;5063118;28;20411;-90
2022/04/04 06:12:17;;;;;;;;;;;;;;;2.38;69.39;100469.91;5054710;28;20433;-90
2022/04/04 06:14:43;;;;;;;;;;;;;;;2.29;68.74;100466.66;5070800;28;19920;-89
2022/04/04 06:17:08;;;;;;;;;;;;;;;2.33;69.26;100475.69;5069365;28;20413;-88
2022/04/04 06:19:34;;;;;;;;;;;;;;;2.35;69.47;100476.09;5070488;28;19951;-89
2022/04/04 06:22:00;;;;;;;;;;;;;;;2.40;69.04;100472.25;5058440;28;19926;-89
2022/04/04 06:24:25;;;;;;;;;;;;;;;2.39;68.37;100467.97;5067924;28;19978;-89
2022/04/04 06:26:51;;;;;;;;;;;;;;;2.35;68.41;100460.47;5064974;28;19947;-88
2022/04/04 06:29:16;;;;;;;;;;;;;;;2.40;68.76;100475.78;5069312;28;19921;-89
2022/04/04 06:31:41;;;;;;;;;;;;;;;2.26;69.43;100475.59;5070576;28;19927;-88
2022/04/04 06:34:10;;;;;;;;;;;;;;;2.38;69.10;100480.06;5070190;28;19951;-84
2022/04/04 06:36:38;;;;;;;;;;;;;;;2.39;68.14;100474.19;5069536;28;20429;-89
2022/04/04 06:39:04;;;;;;;;;;;;;;;2.42;68.95;100472.69;5070003;28;19973;-84
2022/04/04 06:41:31;;;;;;;;;;;;;;;2.39;68.35;100474.19;5069817;28;19924;-84
2022/04/04 06:43:57;;;;;;;;;;;;;;;2.43;68.47;100472.28;5069322;28;19921;-84
2022/04/04 06:46:22;;;;;;;;;;;;;;;2.44;68.77;100459.41;5069245;28;20019;-84
2022/04/04 06:48:51;;;;;;;;;;;;;;;2.48;68.49;100474.72;5069802;28;20469;-84
2022/04/04 06:51:17;;;;;;;;;;;;;;;2.46;68.09;100477.03;5069825;28;19965;-84
2022/04/04 06:53:42;;;;;;;;;;;;;;;2.46;67.94;100479.00;5069221;28;19964;-84
2022/04/04 06:56:07;;;;;;;;;;;;;;;2.42;68.71;100476.22;5070238;28;19924;-85
2022/04/04 06:58:33;;;;;;;;;;;;;;;2.40;68.47;100473.03;5071993;28;19934;-85
2022/04/04 07:00:59;;;;;;;;;;;;;;;2.39;68.98;100476.16;5056147;28;19968;-84
2022/04/04 07:03:24;;;;;;;;;;;;;;;2.46;69.30;100474.31;5073945;28;19924;-85
2022/04/04 07:05:49;;;;;;;;;;;;;;;2.48;68.61;100469.25;5073196;28;19928;-84
2022/04/04 07:08:15;;;;;;;;;;;;;;;2.53;68.75;100468.91;5056446;28;19925;-84
2022/04/04 07:10:40;;;;;;;;;;;;;;;2.55;67.84;100469.31;5070521;28;19952;-84
2022/04/04 07:13:06;;;;;;;;;;;;;;;2.57;68.50;100477.97;5073659;28;19927;-84
2022/04/04 07:15:31;;;;;;;;;;;;;;;2.58;68.75;100471.34;5073451;28;19921;-84
2022/04/04 07:17:57;;;;;;;;;;;;;;;2.64;68.77;100472.56;5073423;28;19924;-84
2022/04/04 07:20:22;;;;;;;;;;;;;;;2.58;68.07;100485.03;5055758;28;19965;-84
2022/04/04 07:22:48;;;;;;;;;;;;;;;2.64;68.27;100478.03;5073521;28;19997;-85
2022/04/04 07:25:14;;;;;;;;;;;;;;;2.65;67.88;100476.88;5071935;28;20013;-84
2022/04/04 07:27:40;;;;;;;;;;;;;;;2.61;67.02;100483.47;5073804;28;19921;-84
2022/04/04 07:30:06;;;;;;;;;;;;;;;2.65;67.61;100478.84;5070215;28;19928;-84
2022/04/04 07:32:33;;;;;;;;;;;;;;;2.76;66.74;100477.81;5073317;28;19927;-84
2022/04/04 07:34:59;;;;;;;;;;;;;;;2.76;66.42;100475.06;5071937;28;19931;-84
2022/04/04 07:37:24;;;;;;;;;;;;;;;2.76;66.86;100479.75;5073326;28;19920;-85
2022/04/04 07:39:50;;;;;;;;;;;;;;;2.79;65.68;100474.31;5071957;28;19925;-84
2022/04/04 07:42:16;;;;;;;;;;;;;;;2.90;66.63;100484.63;5054081;28;20397;-84
2022/04/04 07:44:42;;;;;;;;;;;;;;;2.99;66.86;100485.91;5065604;28;19974;-84
2022/04/04 07:47:07;;;;;;;;;;;;;;;3.01;66.23;100485.50;5054262;28;20384;-84
2022/04/04 07:49:33;;;;;;;;;;;;;;;3.06;66.08;100485.19;5052322;28;20004;-84
2022/04/04 07:51:58;;;;;;;;;;;;;;;3.05;65.35;100467.94;5070656;28;20014;-84
2022/04/04 07:54:24;;;;;;;;;;;;;;;3.05;65.25;100491.81;5052537;28;20271;-85
2022/04/04 07:56:53;;;;;;;;;;;;;;;3.13;65.04;100482.50;5068876;28;19920;-84
2022/04/04 07:59:19;;;;;;;;;;;;;;;3.10;65.16;100480.53;5065239;28;19921;-84
2022/04/04 08:01:44;;;;;;;;;;;;;;;3.14;64.40;100481.34;5072747;28;19927;-84
2022/04/04 08:04:10;;;;;;;;;;;;;;;3.26;65.05;100486.56;5071672;28;19924;-84
2022/04/04 08:06:35;;;;;;;;;;;;;;;3.27;64.22;100483.47;5065877;28;19927;-84
2022/04/04 08:09:03;;;;;;;;;;;;;;;3.31;64.81;100478.00;5072051;28;20313;-84
2022/04/04 08:11:28;;;;;;;;;;;;;;;3.39;63.89;100479.66;5055539;28;19925;-84
2022/04/04 08:13:55;;;;;;;;;;;;;;;3.45;64.16;100464.41;5071068;28;19916;-89
2022/04/04 08:16:22;;;;;;;;;;;;;;;3.46;63.32;100482.44;5065414;28;20003;-90
2022/04/04 08:18:47;;;;;;;;;;;;;;;3.36;62.97;100479.63;5069404;28;19963;-89
2022/04/04 08:21:15;;;;;;;;;;;;;;;3.47;63.74;100481.28;5051785;28;20395;-88
2022/04/04 08:23:41;;;;;;;;;;;;;;;3.56;63.02;100472.75;5066419;28;20055;-89
2022/04/04 08:26:07;;;;;;;;;;;;;;;3.55;61.78;100477.44;5072390;28;20030;-89
2022/04/04 08:28:32;;;;;;;;;;;;;;;3.54;62.41;100473.13;5054768;28;20338;-84
2022/04/04 08:30:58;;;;;;;;;;;;;;;3.54;62.06;100473.13;5072514;28;19920;-84
2022/04/04 08:33:24;;;;;;;;;;;;;;;3.64;63.06;100469.66;5064731;28;19931;-84
2022/04/04 08:35:53;;;;;;;;;;;;;;;3.74;62.67;100457.19;5055359;28;20408;-84
2022/04/04 08:38:18;;;;;;;;;;;;;;;3.68;63.32;100465.00;5065968;28;19931;-84
2022/04/04 08:40:44;;;;;;;;;;;;;;;3.75;62.83;100467.81;5066739;28;19935;-84
2022/04/04 08:43:09;;;;;;;;;;;;;;;3.73;62.46;100456.41;5072087;28;19921;-84
2022/04/04 08:45:37;;;;;;;;;;;;;;;3.61;62.61;100456.72;5062476;28;19920;-84
2022/04/04 08:48:02;;;;;;;;;;;;;;;3.60;63.02;100455.13;5054562;28;19920;-85
2022/04/04 08:50:28;;;;;;;;;;;;;;;3.68;62.06;100445.03;5071029;28;20358;-90
2022/04/04 08:52:53;;;;;;;;;;;;;;;3.64;61.65;100447.72;5066759;28;20484;-89
2022/04/04 08:55:19;;;;;;;;;;;;;;;3.75;62.22;100453.31;5071401;28;19928;-90
2022/04/04 08:57:44;;;;;;;;;;;;;;;3.91;62.18;100442.03;5067049;28;20401;-89
2022/04/04 09:00:10;;;;;;;;;;;;;;;4.01;62.29;100444.06;5071571;28;19921;-89
2022/04/04 09:02:36;;;;;;;;;;;;;;;4.11;60.63;100437.84;5053828;28;20010;-91
2022/04/04 09:05:05;;;;;;;;;;;;;;;3.96;61.15;100447.97;5071521;28;20416;-90
2022/04/04 09:07:30;;;;;;;;;;;;;;;4.18;61.73;100435.13;5071154;28;19920;-90
2022/04/04 09:09:56;;;;;;;;;;;;;;;4.07;60.77;100437.84;5054552;28;19927;-90
2022/04/04 09:12:22;;;;;;;;;;;;;;;4.29;61.29;100435.97;5065061;28;19948;-89
2022/04/04 09:14:51;;;;;;;;;;;;;;;4.42;60.81;100430.94;5062463;28;19920;-89
2022/04/04 09:17:17;;;;;;;;;;;;;;;4.49;60.36;100425.50;5054015;28;19926;-89
2022/04/04 09:19:43;;;;;;;;;;;;;;;4.48;60.60;100427.44;5069918;28;20397;-89
2022/04/04 09:22:09;;;;;;;;;;;;;;;4.52;60.82;100432.97;5070002;28;19924;-89
2022/04/04 09:24:44;;;;;;;;;;;;;;;4.37;58.80;100423.84;5066467;28;20366;-90
2022/04/04 09:27:10;;;;;;;;;;;;;;;4.33;58.79;100428.53;5066326;28;19921;-90
2022/04/04 09:29:36;;;;;;;;;;;;;;;4.27;58.18;100419.09;5067574;28;19924;-90
2022/04/04 09:32:05;;;;;;;;;;;;;;;4.37;57.51;100423.84;5046729;28;19974;-90
2022/04/04 09:34:52;;;;;;;;;;;;;;;4.34;57.49;100413.63;5063667;28;19967;-90
2022/04/04 09:37:19;;;;;;;;;;;;;;;4.40;56.38;100420.34;5071046;28;19929;-90
2022/04/04 09:39:44;;;;;;;;;;;;;;;4.46;56.47;100407.81;5069269;28;19971;-90
2022/04/04 09:42:13;;;;;;;;;;;;;;;4.61;56.30;100408.66;5053671;28;19964;-89
2022/04/04 09:44:39;;;;;;;;;;;;;;;4.82;57.06;100403.19;5070487;28;19972;-89
2022/04/04 09:47:04;;;;;;;;;;;;;;;4.97;58.53;100390.28;5071608;28;19958;-89
2022/04/04 09:49:30;;;;;;;;;;;;;;;5.14;57.06;100395.00;5070658;28;19959;-84
2022/04/04 09:51:56;;;;;;;;;;;;;;;5.11;57.26;100393.03;5052720;28;19928;-83
2022/04/04 09:54:23;;;;;;;;;;;;;;;5.17;56.77;100386.00;5070961;28;19947;-84
2022/04/04 09:56:50;;;;;;;;;;;;;;;5.14;57.11;100389.50;5070356;28;20424;-84
2022/04/04 09:59:16;;;;;;;;;;;;;;;5.17;56.29;100380.50;5069869;28;20308;-84
2022/04/04 10:01:42;;;;;;;;;;;;;;;5.43;58.55;100371.84;5063587;28;20368;-83
2022/04/04 10:04:08;;;;;;;;;;;;;;;5.63;57.25;100373.00;5070835;28;20377;-84
2022/04/04 10:06:33;;;;;;;;;;;;;;;5.61;55.30;100364.38;5052831;28;19928;-83
2022/04/04 10:08:59;;;;;;;;;;;;;;;5.70;54.88;100360.41;5054598;28;19928;-84
2022/04/04 10:11:24;;;;;;;;;;;;;;;5.59;55.42;100355.69;5070450;28;19920;-84
2022/04/04 10:13:52;;;;;;;;;;;;;;;5.64;56.91;100355.31;5069925;28;19927;-84
2022/04/04 10:16:18;;;;;;;;;;;;;;;5.70;55.22;100349.41;5051917;28;20301;-83
2022/04/04 10:18:43;;;;;;;;;;;;;;;5.83;53.76;100347.78;5070598;28;19921;-84
2022/04/04 10:21:09;;;;;;;;;;;;;;;5.80;54.98;100338.38;5069830;28;19921;-83
2022/04/04 10:23:34;;;;;;;;;;;;;;;5.94;55.02;100335.63;5070173;28;19975;-84
2022/04/04 10:26:00;;;;;;;;;;;;;;;5.83;53.99;100331.25;5068324;28;20289;-84
2022/04/04 10:28:27;;;;;;;;;;;;;;;5.77;53.92;100321.84;5069870;28;19927;-83
2022/04/04 10:30:52;;;;;;;;;;;;;;;5.76;54.63;100320.28;5069872;28;19931;-84
2022/04/04 10:33:19;;;;;;;;;;;;;;;5.93;54.21;100316.72;5070834;28;19924;-84
2022/04/04 10:35:57;;;;;;;;;;;;;;;5.80;54.50;100312.81;5070641;28;19924;-84
2022/04/04 10:38:28;;;;;;;;;;;;;;;5.97;54.98;100309.25;5063793;28;19939;-83
2022/04/04 10:40:53;;;;;;;;;;;;;;;5.71;54.25;100304.16;5067891;28;19920;-83
2022/04/04 10:43:19;;;;;;;;;;;;;;;5.78;55.12;100301.41;5068742;28;19927;-90
2022/04/04 10:46:04;;;;;;;;;;;;;;;5.99;54.80;100293.09;5070023;28;20427;-90
2022/04/04 10:48:30;;;;;;;;;;;;;;;6.25;54.75;100281.56;5064539;28;19944;-90
2022/04/04 10:51:00;;;;;;;;;;;;;;;6.35;53.34;100269.69;5070086;28;20377;-89
2022/04/04 10:53:39;;;;;;;;;;;;;;;6.51;53.07;100278.25;5052444;28;19931;-90
2022/04/04 10:56:05;;;;;;;;;;;;;;;6.71;55.10;100266.72;5067534;28;19920;-89
2022/04/04 10:58:30;;;;;;;;;;;;;;;6.92;52.10;100266.53;5068711;28;19924;-90
2022/04/04 11:01:14;;;;;;;;;;;;;;;6.99;51.81;100258.22;5059399;28;19921;-91
2022/04/04 11:03:48;;;;;;;;;;;;;;;6.96;51.03;100248.78;5058248;28;20400;-89
2022/04/04 11:09:02;;;;;;;;;;;;;;;6.80;51.02;100244.97;5068447;28;19916;-91
2022/04/04 11:11:44;;;;;;;;;;;;;;;6.88;50.04;100240.97;5032201;28;19924;-91
2022/04/04 11:14:09;;;;;;;;;;;;;;;6.99;50.81;100231.44;5054385;28;20278;-91
2022/04/04 11:16:53;;;;;;;;;;;;;;;7.13;51.11;100235.22;5048444;28;19928;-90
2022/04/04 11:19:19;;;;;;;;;;;;;;;7.34;49.91;100227.53;5067881;28;19928;-92
2022/04/04 11:21:46;;;;;;;;;;;;;;;7.12;48.60;100220.66;5067881;28;19928;-83
2022/04/04 11:24:11;;;;;;;;;;;;;;;6.87;49.67;100223.66;5050298;28;20014;-83
2022/04/04 11:26:37;;;;;;;;;;;;;;;6.93;48.84;100212.94;5053000;28;19966;-84
2022/04/04 11:29:02;;;;;;;;;;;;;;;7.01;50.09;100211.69;5050562;28;20302;-83
2022/04/04 11:31:28;;;;;;;;;;;;;;;7.20;49.12;100213.09;5051727;28;19921;-83
2022/04/04 11:33:54;;;;;;;;;;;;;;;7.33;47.94;100198.34;5059238;28;19919;-83
2022/04/04 11:36:30;;;;;;;;;;;;;;;7.65;47.87;100200.75;5050246;28;20281;-83
2022/04/04 11:39:03;;;;;;;;;;;;;;;7.88;48.04;100191.78;5037622;28;20427;-83
2022/04/04 11:41:35;;;;;;;;;;;;;;;8.08;48.64;100192.69;5048970;28;19920;-83
2022/04/04 11:44:01;;;;;;;;;;;;;;;7.88;47.13;100184.28;5051595;28;19920;-83
2022/04/04 11:46:26;;;;;;;;;;;;;;;7.88;46.90;100181.53;5036510;28;19920;-83
2022/04/04 11:48:54;;;;;;;;;;;;;;;8.01;47.64;100169.91;5054278;28;20409;-83
2022/04/04 11:51:22;;;;;;;;;;;;;;;8.23;47.64;100168.41;5069049;28;19920;-83
2022/04/04 11:53:48;;;;;;;;;;;;;;;8.16;47.50;100169.28;5074390;28;19921;-83
2022/04/04 11:56:20;;;;;;;;;;;;;;;8.38;47.45;100153.97;5074129;28;19921;-83
2022/04/04 11:58:46;;;;;;;;;;;;;;;9.00;46.62;100143.44;5057199;28;19924;-83
2022/04/04 12:01:11;;;;;;;;;;;;;;;9.38;46.88;100146.66;5073967;28;19921;-83
2022/04/04 12:03:43;;;;;;;;;;;;;;;9.69;42.98;100140.44;5073602;28;19927;-83
2022/04/04 12:06:08;;;;;;;;;;;;;;;9.79;43.31;100131.13;5056869;28;19928;-83
2022/04/04 12:08:42;;;;;;;;;;;;;;;9.54;42.09;100121.81;5073662;28;19920;-83
2022/04/04 12:11:07;;;;;;;;;;;;;;;9.19;43.19;100113.00;5065354;28;19927;-83
2022/04/04 12:13:33;;;;;;;;;;;;;;;9.28;44.40;100115.19;5062048;28;19917;-83
2022/04/04 12:15:58;;;;;;;;;;;;;;;9.44;44.56;100111.72;5073818;28;19924;-83
2022/04/04 12:18:25;;;;;;;;;;;;;;;9.56;45.57;100108.28;5038966;28;19916;-83
2022/04/04 12:20:51;;;;;;;;;;;;;;;9.35;43.12;100104.75;5055881;28;19921;-89
2022/04/04 12:26:02;;;;;;;;;;;;;;;9.25;43.45;100083.63;5073544;28;20011;-90
2022/04/04 12:28:29;;;;;;;;;;;;;;;8.77;43.00;100075.09;5055513;28;19959;-93
2022/04/04 12:30:54;;;;;;;;;;;;;;;8.52;44.03;100081.09;5055699;28;20393;-89
2022/04/04 12:33:20;;;;;;;;;;;;;;;8.62;44.90;100074.56;5039137;28;19925;-90
2022/04/04 12:35:46;;;;;;;;;;;;;;;8.67;44.58;100065.00;5073359;28;19939;-92
2022/04/04 12:38:44;;;;;;;;;;;;;;;8.78;45.81;100060.84;5073586;28;20397;-90
2022/04/04 12:41:15;;;;;;;;;;;;;;;8.75;44.18;100060.91;5032914;28;20397;-89
2022/04/04 12:43:44;;;;;;;;;;;;;;;8.72;45.15;100051.47;5053897;28;20369;-88
2022/04/04 12:46:23;;;;;;;;;;;;;;;8.73;43.93;100053.06;5069906;28;19917;-89
2022/04/04 12:48:48;;;;;;;;;;;;;;;8.58;45.51;100045.41;5070112;28;19936;-89
2022/04/04 12:51:29;;;;;;;;;;;;;;;8.56;45.45;100039.53;5069430;28;20309;-89